Marcel Dubois

Scout - AC Ajaccio
15 Oct 2028
Sunday
Process

Personality

Adaptability (10) Ambition (2) Controversy (8) Loyalty (19) Pressure (16) Professionalism (1) Sportsmanship (6) Temperament (6)

Profile

Coaching Style Democratic
License National B
Determination 11
Man Management 9
Motivating 11
Discipline 9
Job Satisfaction
100%
Fatigue
0%
Role Scout
Wage 46.0K p/w
Contract 14.03.2029

Performance

Behaviour Good
Training Effectiveness
25%
Player Development
45%
Injury Prevention
20%
Tactical Implementation
30%

Recent Events

Attended a recruitment meeting 7d ago
Recommended a transfer target 7d ago
Attended a recruitment meeting 14d ago
Recommended a transfer target 14d ago
Attended a recruitment meeting 21d ago
Recommended a transfer target 21d ago
Attended a recruitment meeting 28d ago
Recommended a transfer target 28d ago

Currently Monitoring

104
Player Club Status Ability Confidence Watched Last Observed Latest Vote
Bruno Miño Almirante Brown Lost 119 / 106 40% 1 07.08.2028 -
Alan Cisnero Exeter City Active 104 / 110 40% 1 07.08.2028 -
Aaron Drinan Swindon Town Active 118 / 100 40% 1 15.06.2027 -
Sampson Dweh Mallorca Active 133 / 134 66% 1 01.06.2027 Approve
Nathanaël Bai US Creteil Lost 88 / 79 48% 1 01.06.2027 -
Aiham Ousou Charleroi Active 130 / 132 40% 3 15.05.2027 -
Radinio Balker Huddersfield Town Active 123 / 117 40% 3 15.05.2027 -
Lewis Gibson Preston Active 137 / 133 40% 2 14.05.2027 -
Marcus Ifill Crewe Alexandra Active 98 / 114 40% 1 14.05.2027 -
Chris Mepham West Bromwich Albion Active 121 / 133 40% 2 13.05.2027 -
Toby Collyer West Bromwich Albion Active 123 / 133 40% 6 12.05.2027 -
Mehdi Dorval Catanzaro Active 119 / 137 40% 1 12.05.2027 -
Adam Randell Bristol City Active 118 / 125 40% 2 10.05.2027 -
Moussa Baradji Blackburn Rovers Active 133 / 122 40% 1 09.05.2027 -
Dennis Cirkin Queens Park Rangers Active 122 / 132 40% 3 08.05.2027 -
Joel Bagan Cardiff City Active 128 / 115 40% 2 08.05.2027 -
Arthur Avom Ebong FC Lorient Active 124 / 137 40% 1 08.05.2027 -
Tom Pearce Chesterfield Active 112 / 116 40% 1 08.05.2027 -
Mike Eerdhuijzen KV Mechelen Active 133 / 130 40% 4 06.05.2027 -
Will Fish Cardiff City Active 110 / 121 40% 2 06.05.2027 -
Clément Akpa AJ Auxerre Active 143 / 126 40% 2 05.05.2027 -
Ronnie Edwards Queens Park Rangers Active 127 / 122 40% 1 05.05.2027 -
Michael Baidoo Plymouth Argyle Active 120 / 130 40% 1 05.05.2027 -
Harrison Burrows Sheffield United Active 138 / 134 40% 2 04.05.2027 -
Connor Ogilvie Grimsby Town Active 103 / 111 40% 1 04.05.2027 -
Romano Floriani Mussolini Blackpool Active 117 / 133 40% 1 04.05.2027 -
Léandre Kuavita Waasland-Beveren Active 119 / 115 40% 2 03.05.2027 -
Łukasz Łakomy OH Leuven Active 114 / 111 40% 3 02.05.2027 -
Shea Charles Southampton Active 131 / 139 40% 4 02.05.2027 -
Jack Shepherd Swindon Town Active 99 / 111 40% 1 02.05.2027 -
Adam Senior Barnet Active 94 / 94 40% 1 02.05.2027 -
Alfie Doughty Millwall Active 136 / 119 40% 1 01.05.2027 -
Terry Devlin Portsmouth Active 114 / 120 40% 1 01.05.2027 -
Matt Clarke Derby County Active 125 / 124 40% 2 28.04.2027 -
Max Sanders Crewe Alexandra Active 109 / 113 40% 1 28.04.2027 -
Pape Diong Westerlo Active 102 / 118 40% 3 27.04.2027 -
Lee Buchanan Sheffield Wednesday Active 118 / 126 40% 1 27.04.2027 -
Timothy Fellaini KV Oostende Active 141 / 142 40% 5 26.04.2027 -
Dylan Ourega Westerlo Active 100 / 121 40% 1 26.04.2027 -
Andy Cannon Doncaster Rovers Active 97 / 98 40% 1 24.04.2027 -
Idris El Mizouni Leyton Orient Active 124 / 111 40% 2 23.04.2027 -
Brian De Keersmaecker Oxford United Active 121 / 115 40% 2 22.04.2027 -
Christoph Klarer Birmingham Active 123 / 126 40% 1 22.04.2027 -
Lewis Bate Stockport County Active 108 / 123 40% 1 21.04.2027 -
Daniel Harvie Wycombe Wanderers Active 121 / 118 40% 1 20.04.2027 -
Derry Murkin Derby County Active 131 / 122 40% 2 19.04.2027 -
Josh Neufville Bradford City Active 102 / 115 40% 2 17.04.2027 -
Darlin Yongwa Norwich City Active 124 / 119 40% 2 15.04.2027 -
Alfie Gilchrist West Bromwich Albion Active 119 / 123 40% 1 15.04.2027 -
Kristoffer Lund Birmingham Active 117 / 122 40% 3 14.04.2027 -
Harry Clarke Preston Active 131 / 127 40% 3 14.04.2027 -
Matthew Targett Hull City Active 124 / 132 40% 1 14.04.2027 -
Diego Coppola Paris FC Active 131 / 134 40% 2 13.04.2027 -
Georgie Gent Barnsley Active 125 / 116 40% 2 13.04.2027 -
Tommy St. Jago KV Mechelen Active 123 / 114 40% 1 12.04.2027 -
Oliver Skipp Leicester City Active 138 / 133 40% 1 12.04.2027 -
Rassoul Ndiaye Le Havre AC Active 144 / 135 40% 1 12.04.2027 -
Otávio Paris FC Active 124 / 143 40% 1 11.04.2027 -
Callum Brittain Middlesbrough Active 118 / 124 40% 1 10.04.2027 -
Aly Keïta Djoliba Active 121 / 88 40% 1 09.04.2027 -
Milan van Ewijk Coventry City Active 141 / 126 40% 5 08.04.2027 -
Max Johnston Derby County Active 141 / 127 40% 4 08.04.2027 -
Sondre Tronstad Blackburn Rovers Active 110 / 121 40% 1 07.04.2027 -
Harvey Vale Queens Park Rangers Active 121 / 129 40% 1 06.04.2027 -
Ethan Pye Stockport County Active 118 / 111 40% 2 05.04.2027 -
Connor Barrett Walsall Active 99 / 106 40% 1 04.04.2027 -
Jack Currie Oxford United Active 123 / 124 40% 1 04.04.2027 -
Fredrik Hammar KV Mechelen Active 129 / 118 40% 1 04.04.2027 -
Ramahlwe Jali Platinum Stars Active 122 / 112 40% 1 01.04.2027 -
Max Conway Bolton Wanderers Active 132 / 119 40% 1 30.03.2027 -
Junior Onana Ludogorets Active 106 / 106 40% 1 30.03.2027 -
Jordan Lotomba Bloemfontein Celtic Active 111 / 118 40% 1 29.03.2027 -
Aidan Morris Middlesbrough Active 126 / 131 40% 1 29.03.2027 -
Rodrigo Pinheiro Famalicao Active 142 / 128 40% 1 29.03.2027 -
Félix Oukiné Cotonsport Garoua Active 97 / 103 40% 1 29.03.2027 -
Taiga Hata Sint-Truiden Active 122 / 121 40% 4 28.03.2027 -
Hamza Choudhury Leicester City Active 114 / 116 40% 1 28.03.2027 -
Marc Bola Watford Active 115 / 121 40% 1 26.03.2027 -
Gilles Dewaele KV Kortrijk Active 107 / 120 40% 1 26.03.2027 -
Youte Estoril Praia Active 109 / 120 40% 1 26.03.2027 -
Enrique Lofolomo Zulte Waregem Active 115 / 103 40% 1 25.03.2027 -
Luke McNally Bristol City Active 121 / 129 40% 1 25.03.2027 -
Dean Campbell Northampton Town Active 99 / 102 40% 1 25.03.2027 -
Jacob Greaves Ipswich Town Active 145 / 144 40% 6 24.03.2027 -
Oliver Arblaster Sheffield United Active 125 / 124 40% 1 19.03.2027 -
Pelle Mattsson Norwich City Active 118 / 133 40% 1 18.03.2027 -
Habib Diarra Sunderland Active 146 / 146 40% 1 18.03.2027 -
Ayumu Seko Le Havre AC Active 135 / 140 40% 1 17.03.2027 -
Théodore Lefèvre Tours Active 142 / 135 40% 2 16.03.2027 -
Bosun Lawal Stoke City Active 124 / 121 40% 1 05.03.2027 -
Dara O'Shea Ipswich Town Active 135 / 139 40% 1 24.02.2027 -
Timothy Witsel FC Metz Active 120 / 140 40% 3 22.02.2027 -
Aarón Mejía Tijuana Active 136 / 115 40% 1 21.02.2027 -
Botond Balogh Westerlo Active 112 / 131 40% 2 10.02.2027 -
Hidemasa Morita Hull City Active 143 / 135 40% 1 31.12.2026 -
Alejandro Gómez Tijuana Active 103 / 109 40% 1 31.12.2026 -
Reinildo Sunderland Active 148 / 141 40% 1 08.12.2026 -
Viktor Boone Waasland-Beveren Active 104 / 123 40% 1 19.11.2026 -
Nacer Chadli Mouscron Active 133 / 113 40% 1 19.11.2026 -
Hugo Siquet Club Brugge Active 110 / 118 40% 1 08.11.2026 -
Pedro Vite Pumas UNAM Active 145 / 109 40% 1 04.11.2026 -
Cheick Keita Charleroi Active 131 / 125 40% 1 07.10.2026 -
Jason Denayer OH Leuven Active 109 / 124 40% 1 09.09.2026 -
Branco van den Boomen Groningen Active 110 / 117 40% 1 07.09.2026 -